Time;durP1;ratioP1;P1;durP2;ratioP2;P2;SDS_P1;SDS_P2;PMS_P1;PMS_P2;Temp;Humidity;BMP_temperature;BMP_pressure;BME280_temperature;BME280_humidity;BME280_pressure;Samples;Min_cycle;Max_cycle;Signal;HPM_P1;HPM_P2
2022/05/28 00:01:36;;;;;;;2.88;1.38;;;17.90;53.70;;;;;;4975700;28;20565;-78
2022/05/28 00:04:04;;;;;;;2.50;1.30;;;17.90;53.80;;;;;;4976424;28;20031;-78
2022/05/28 00:06:32;;;;;;;3.40;1.70;;;17.90;54.50;;;;;;4976388;28;20026;-78
2022/05/28 00:09:00;;;;;;;2.45;1.33;;;17.90;53.80;;;;;;4975936;28;20121;-78
2022/05/28 00:11:34;;;;;;;3.33;1.20;;;17.90;53.90;;;;;;4977220;28;20022;-78
2022/05/28 00:14:00;;;;;;;2.60;1.30;;;17.80;53.90;;;;;;4959839;28;20459;-78
2022/05/28 00:16:26;;;;;;;2.50;1.10;;;17.80;53.90;;;;;;4944206;28;20359;-78
2022/05/28 00:18:53;;;;;;;2.17;1.10;;;17.80;53.90;;;;;;4959303;28;20531;-78
2022/05/28 00:21:20;;;;;;;1.67;1.02;;;17.80;54.00;;;;;;4975161;28;20030;-78
2022/05/28 00:23:45;;;;;;;1.67;1.40;;;17.70;54.00;;;;;;4975863;28;20030;-78
2022/05/28 00:26:13;;;;;;;3.10;1.35;;;17.70;54.00;;;;;;4959643;28;20031;-78
2022/05/28 00:28:39;;;;;;;3.95;1.50;;;17.70;54.00;;;;;;4959611;28;20038;-78
2022/05/28 00:31:05;;;;;;;3.95;1.60;;;17.70;54.10;;;;;;4975401;28;20019;-78
2022/05/28 00:33:31;;;;;;;2.47;1.30;;;17.60;54.00;;;;;;4975989;28;20066;-78
2022/05/28 00:35:59;;;;;;;4.65;1.50;;;17.60;54.10;;;;;;4975639;28;20106;-78
2022/05/28 00:38:25;;;;;;;1.92;1.20;;;17.60;54.20;;;;;;4975287;28;20038;-77
2022/05/28 00:40:56;;;;;;;2.95;1.30;;;17.60;54.20;;;;;;4975159;28;20085;-78
2022/05/28 00:43:24;;;;;;;2.63;1.35;;;17.50;54.20;;;;;;4975745;28;20069;-77
2022/05/28 00:45:54;;;;;;;2.42;1.20;;;17.50;54.30;;;;;;4959035;28;20024;-78
2022/05/28 00:48:29;;;;;;;3.22;1.30;;;17.50;54.30;;;;;;4958966;28;20118;-78
2022/05/28 00:50:57;;;;;;;3.50;1.40;;;17.50;54.40;;;;;;4975390;28;20030;-78
2022/05/28 00:53:24;;;;;;;2.17;1.20;;;17.40;54.30;;;;;;4976386;28;20438;-77
2022/05/28 00:55:50;;;;;;;1.92;1.20;;;17.40;54.40;;;;;;4943584;28;20077;-77
2022/05/28 00:58:16;;;;;;;1.35;1.10;;;17.40;54.40;;;;;;4959248;28;20031;-77
2022/05/28 01:00:41;;;;;;;2.08;1.10;;;17.30;54.40;;;;;;4976535;28;20031;-77
2022/05/28 01:03:32;;;;;;;2.22;1.20;;;17.30;54.40;;;;;;4975289;28;20019;-78
2022/05/28 01:06:06;;;;;;;2.40;1.30;;;17.30;54.60;;;;;;4976595;28;20471;-78
2022/05/28 01:08:40;;;;;;;1.73;1.23;;;17.30;54.60;;;;;;4959108;28;20031;-78
2022/05/28 01:11:34;;;;;;;1.98;1.30;;;17.20;54.50;;;;;;4975178;28;20460;-78
2022/05/28 01:14:11;;;;;;;2.15;1.30;;;17.20;54.60;;;;;;4959010;28;20026;-77
2022/05/28 01:16:49;;;;;;;2.92;1.30;;;17.20;54.70;;;;;;4975400;28;20031;-77
2022/05/28 01:19:43;;;;;;;2.55;1.20;;;17.20;54.80;;;;;;4975763;28;20097;-77
2022/05/28 01:22:42;;;;;;;3.92;1.50;;;17.10;54.90;;;;;;4974473;28;20356;-77
2022/05/28 01:25:23;;;;;;;2.33;1.35;;;17.10;54.90;;;;;;4936408;28;20042;-78
2022/05/28 01:27:57;;;;;;;3.20;1.33;;;17.10;54.90;;;;;;4974897;28;20444;-77
2022/05/28 01:30:23;;;;;;;2.25;1.40;;;17.00;54.90;;;;;;4974564;28;20030;-77
2022/05/28 01:32:54;;;;;;;2.92;1.42;;;17.00;54.90;;;;;;4958492;28;20187;-77
2022/05/28 01:35:22;;;;;;;2.47;1.38;;;17.00;55.00;;;;;;4975698;28;20114;-78
2022/05/28 01:37:49;;;;;;;1.70;1.17;;;17.00;55.00;;;;;;4974702;28;20031;-78
2022/05/28 01:40:16;;;;;;;2.90;1.40;;;16.90;55.00;;;;;;4975348;28;20023;-77
2022/05/28 01:42:48;;;;;;;3.00;1.67;;;16.90;55.10;;;;;;4957935;28;20027;-77
2022/05/28 01:45:16;;;;;;;3.17;1.50;;;16.90;55.10;;;;;;4974253;28;20379;-77
2022/05/28 01:47:43;;;;;;;2.40;1.40;;;16.90;55.10;;;;;;4975665;28;20034;-77
2022/05/28 01:50:12;;;;;;;2.72;1.27;;;16.90;55.10;;;;;;4958127;28;20037;-77
2022/05/28 01:52:39;;;;;;;3.60;1.50;;;16.80;55.10;;;;;;4974992;28;20019;-77
2022/05/28 01:55:07;;;;;;;2.17;1.40;;;16.80;55.20;;;;;;4973996;28;20030;-78
2022/05/28 01:57:33;;;;;;;2.63;1.50;;;16.80;55.20;;;;;;4958100;28;20106;-78
2022/05/28 01:59:59;;;;;;;2.35;1.35;;;16.80;55.20;;;;;;4975056;28;20022;-78
2022/05/28 02:02:25;;;;;;;2.63;1.30;;;16.80;55.30;;;;;;4976278;28;20025;-77
2022/05/28 02:04:51;;;;;;;1.80;1.23;;;16.80;55.30;;;;;;4974354;28;20064;-77
2022/05/28 02:07:19;;;;;;;3.10;1.40;;;16.70;55.30;;;;;;4957914;28;20022;-77
2022/05/28 02:10:08;;;;;;;2.10;1.20;;;16.70;55.40;;;;;;4974169;28;20117;-77
2022/05/28 02:13:01;;;;;;;1.75;1.05;;;16.70;56.10;;;;;;4973242;28;20109;-77
2022/05/28 02:15:34;;;;;;;1.40;1.20;;;16.60;55.50;;;;;;4958145;28;20407;-77
2022/05/28 02:18:22;;;;;;;1.63;1.20;;;16.60;55.40;;;;;;4958468;28;20035;-78
2022/05/28 02:21:03;;;;;;;2.17;1.30;;;16.60;55.60;;;;;;4957839;28;20045;-78
2022/05/28 02:23:39;;;;;;;1.85;1.20;;;16.60;55.60;;;;;;4973711;28;20035;-77
2022/05/28 02:26:15;;;;;;;3.22;1.58;;;16.50;55.60;;;;;;4973757;28;20031;-77
2022/05/28 02:28:42;;;;;;;1.83;1.30;;;16.50;55.70;;;;;;4974033;28;20027;-78
2022/05/28 02:31:23;;;;;;;2.63;1.30;;;16.50;55.70;;;;;;4975562;28;20462;-77
2022/05/28 02:33:49;;;;;;;2.05;1.40;;;16.50;55.80;;;;;;4974154;28;20049;-78
2022/05/28 02:36:17;;;;;;;1.85;1.10;;;16.40;56.30;;;;;;4975209;28;20446;-77
2022/05/28 02:38:43;;;;;;;2.80;1.40;;;16.40;55.80;;;;;;4973973;28;20022;-77
2022/05/28 02:41:10;;;;;;;1.50;1.20;;;16.50;55.90;;;;;;4973962;28;20117;-77
2022/05/28 02:43:36;;;;;;;3.08;1.45;;;16.40;55.90;;;;;;4961094;28;20035;-77
2022/05/28 02:46:03;;;;;;;1.67;1.20;;;16.40;55.90;;;;;;4979075;28;20466;-77
2022/05/28 02:48:29;;;;;;;3.25;1.58;;;16.40;56.00;;;;;;4978315;28;20475;-77
2022/05/28 02:51:02;;;;;;;1.92;1.20;;;16.30;55.90;;;;;;4962202;28;20031;-77
2022/05/28 02:53:27;;;;;;;2.55;1.33;;;16.30;56.00;;;;;;4978124;28;20479;-77
2022/05/28 02:55:53;;;;;;;1.88;1.20;;;16.30;56.00;;;;;;4961264;28;20126;-77
2022/05/28 02:58:19;;;;;;;2.53;1.30;;;16.40;56.10;;;;;;4978324;28;20105;-77
2022/05/28 03:00:45;;;;;;;2.80;1.40;;;16.30;56.10;;;;;;4978304;28;20027;-77
2022/05/28 03:03:11;;;;;;;2.25;1.58;;;16.30;56.20;;;;;;4978543;28;20022;-77
2022/05/28 03:05:36;;;;;;;1.88;1.30;;;16.30;56.20;;;;;;4976744;28;20034;-77
2022/05/28 03:08:02;;;;;;;2.97;1.20;;;16.20;56.20;;;;;;4960819;28;20043;-77
2022/05/28 03:10:28;;;;;;;2.40;1.20;;;16.20;56.30;;;;;;4977815;28;20089;-77
2022/05/28 03:12:54;;;;;;;2.10;1.02;;;16.20;56.30;;;;;;4977409;28;20022;-77
2022/05/28 03:15:20;;;;;;;1.88;1.30;;;16.20;56.30;;;;;;4977128;28;20507;-77
2022/05/28 03:17:46;;;;;;;1.23;1.10;;;16.20;56.40;;;;;;4978751;28;20034;-76
2022/05/28 03:20:13;;;;;;;2.85;1.30;;;16.20;56.40;;;;;;4992708;28;20055;-77
2022/05/28 03:22:39;;;;;;;2.30;1.35;;;16.20;56.50;;;;;;4976931;28;20097;-76
2022/05/28 03:25:05;;;;;;;2.55;1.40;;;16.10;56.40;;;;;;4960955;28;20031;-77
2022/05/28 03:27:31;;;;;;;1.70;1.33;;;16.10;56.40;;;;;;4960624;28;20034;-77
2022/05/28 03:29:56;;;;;;;2.13;1.30;;;16.10;56.60;;;;;;4977299;28;20034;-77
2022/05/28 03:32:22;;;;;;;2.13;1.20;;;16.10;56.80;;;;;;4976814;28;20363;-77
2022/05/28 03:34:48;;;;;;;2.65;1.30;;;16.10;56.60;;;;;;4961439;28;20367;-77
2022/05/28 03:37:13;;;;;;;2.75;1.30;;;16.00;56.50;;;;;;4976320;28;20026;-77
2022/05/28 03:39:39;;;;;;;2.80;1.30;;;16.00;56.60;;;;;;4960538;28;20041;-77
2022/05/28 03:42:05;;;;;;;2.33;1.20;;;16.00;56.70;;;;;;4976831;28;20470;-77
2022/05/28 03:44:31;;;;;;;2.58;1.35;;;16.00;56.60;;;;;;4976573;28;20470;-77
2022/05/28 03:46:56;;;;;;;3.28;1.50;;;16.00;56.70;;;;;;4976831;28;20023;-77
2022/05/28 03:49:28;;;;;;;3.05;1.40;;;15.90;56.70;;;;;;4976532;28;20082;-76
2022/05/28 03:51:55;;;;;;;2.85;1.30;;;15.90;56.80;;;;;;4976369;28;20098;-77
2022/05/28 03:54:21;;;;;;;1.48;1.30;;;15.90;56.70;;;;;;4959532;28;20031;-76
2022/05/28 03:56:48;;;;;;;1.73;1.15;;;15.90;56.80;;;;;;4976226;28;20027;-77
2022/05/28 03:59:14;;;;;;;1.20;1.10;;;15.90;56.90;;;;;;4976231;28;20468;-77
2022/05/28 04:01:41;;;;;;;1.85;1.13;;;15.90;56.90;;;;;;4960092;28;20030;-77
2022/05/28 04:04:07;;;;;;;2.33;1.20;;;15.80;56.80;;;;;;4976306;28;20034;-77
2022/05/28 04:06:35;;;;;;;4.90;1.70;;;15.80;56.80;;;;;;4976145;28;20395;-77
2022/05/28 04:09:02;;;;;;;3.05;1.35;;;15.80;56.90;;;;;;4959830;28;20041;-77
2022/05/28 04:11:28;;;;;;;1.85;1.20;;;15.80;56.90;;;;;;4976306;28;20023;-77
2022/05/28 04:13:54;;;;;;;3.45;1.30;;;15.80;57.00;;;;;;4959894;28;20487;-77
2022/05/28 04:16:20;;;;;;;1.60;1.10;;;15.80;57.00;;;;;;4975919;28;20097;-77
2022/05/28 04:18:45;;;;;;;2.00;1.48;;;15.80;57.00;;;;;;4975719;28;20180;-77
2022/05/28 04:21:11;;;;;;;2.83;1.30;;;15.70;57.00;;;;;;4976106;28;20122;-77
2022/05/28 04:23:37;;;;;;;2.72;1.30;;;15.70;57.10;;;;;;4975726;28;20468;-77
2022/05/28 04:26:03;;;;;;;2.47;1.27;;;15.70;57.10;;;;;;4959872;28;20065;-77
2022/05/28 04:28:29;;;;;;;1.83;1.30;;;15.70;57.10;;;;;;4960068;28;20031;-77
2022/05/28 04:30:55;;;;;;;2.08;1.20;;;15.70;57.10;;;;;;4976717;28;20030;-77
2022/05/28 04:33:21;;;;;;;2.25;1.35;;;15.70;57.20;;;;;;4976025;28;20069;-76
2022/05/28 04:35:46;;;;;;;2.05;1.38;;;15.70;57.20;;;;;;4960296;28;20031;-77
2022/05/28 04:38:12;;;;;;;2.85;1.20;;;15.70;57.20;;;;;;4975858;28;20041;-76
2022/05/28 04:40:38;;;;;;;2.72;1.33;;;15.70;57.20;;;;;;4959264;28;20027;-78
2022/05/28 04:43:04;;;;;;;3.10;1.30;;;15.70;57.30;;;;;;4959384;28;20124;-77
2022/05/28 04:45:29;;;;;;;3.42;1.30;;;15.70;57.30;;;;;;4975631;28;20023;-77
2022/05/28 04:47:55;;;;;;;3.05;1.30;;;15.70;57.30;;;;;;4975297;28;20483;-77
2022/05/28 04:50:21;;;;;;;2.00;1.00;;;15.60;57.30;;;;;;4959343;28;20471;-77
2022/05/28 04:52:47;;;;;;;2.10;1.20;;;15.60;57.30;;;;;;4975519;28;20029;-77
2022/05/28 04:55:13;;;;;;;3.53;1.30;;;15.60;57.30;;;;;;4974931;28;20102;-77
2022/05/28 04:57:39;;;;;;;2.10;1.13;;;15.60;57.40;;;;;;4974928;28;20528;-77
2022/05/28 05:00:13;;;;;;;1.65;1.13;;;15.60;57.40;;;;;;4991273;28;20057;-77
2022/05/28 05:02:39;;;;;;;2.05;1.38;;;15.60;57.50;;;;;;4975967;28;20026;-77
2022/05/28 05:05:05;;;;;;;1.85;1.02;;;15.60;57.40;;;;;;4974076;28;20030;-76
2022/05/28 05:07:32;;;;;;;2.40;1.33;;;15.60;57.40;;;;;;4975751;28;20035;-77
2022/05/28 05:09:57;;;;;;;1.95;0.95;;;15.60;57.40;;;;;;4958728;28;20027;-77
2022/05/28 05:12:23;;;;;;;2.65;1.20;;;15.50;57.40;;;;;;4975168;28;20027;-77
2022/05/28 05:14:49;;;;;;;1.77;1.00;;;15.50;57.40;;;;;;4959079;28;20512;-77
2022/05/28 05:17:14;;;;;;;1.15;0.98;;;15.50;57.50;;;;;;4974354;28;20038;-77
2022/05/28 05:19:40;;;;;;;3.08;1.50;;;15.50;57.50;;;;;;4973596;28;20055;-77
2022/05/28 05:22:06;;;;;;;1.38;1.10;;;15.50;57.50;;;;;;4958492;28;20041;-77
2022/05/28 05:24:33;;;;;;;1.52;1.10;;;15.50;57.50;;;;;;4974489;28;20038;-77
2022/05/28 05:27:03;;;;;;;1.15;1.00;;;15.50;57.60;;;;;;4974955;28;20518;-77
2022/05/28 05:29:29;;;;;;;2.47;1.05;;;15.50;57.60;;;;;;4974331;28;20058;-77
2022/05/28 05:31:55;;;;;;;2.55;1.05;;;15.50;58.20;;;;;;4974431;28;20054;-77
2022/05/28 05:34:20;;;;;;;1.38;1.15;;;15.50;57.60;;;;;;4942396;28;20030;-77
2022/05/28 05:36:46;;;;;;;1.35;0.98;;;15.50;57.60;;;;;;4958272;28;20045;-77
2022/05/28 05:39:12;;;;;;;2.05;1.08;;;15.50;57.60;;;;;;4958189;28;20033;-77
2022/05/28 05:41:41;;;;;;;1.13;0.90;;;15.50;57.70;;;;;;4973891;28;20105;-77
2022/05/28 05:44:07;;;;;;;1.25;1.00;;;15.50;57.70;;;;;;4975021;28;20073;-77
2022/05/28 05:46:33;;;;;;;2.13;1.20;;;15.50;57.70;;;;;;4975117;28;20486;-77
2022/05/28 05:48:59;;;;;;;1.98;1.08;;;15.50;57.70;;;;;;4958192;28;20129;-77
2022/05/28 05:51:25;;;;;;;3.38;1.17;;;15.50;57.70;;;;;;4958219;28;20373;-77
2022/05/28 05:53:51;;;;;;;1.20;1.10;;;15.50;57.70;;;;;;4975067;28;20447;-78
2022/05/28 05:56:16;;;;;;;1.58;0.90;;;15.50;57.70;;;;;;4957886;28;20472;-79
2022/05/28 05:58:42;;;;;;;1.20;0.90;;;15.50;57.70;;;;;;4975268;28;20376;-77
2022/05/28 06:01:08;;;;;;;1.40;1.00;;;15.50;57.80;;;;;;4956488;28;20125;-78
2022/05/28 06:03:35;;;;;;;1.08;1.00;;;15.50;57.80;;;;;;4942810;28;20065;-78
2022/05/28 06:06:04;;;;;;;1.67;1.20;;;15.50;57.80;;;;;;4973676;28;20479;-78
2022/05/28 06:08:30;;;;;;;1.27;0.98;;;15.50;57.80;;;;;;4975160;28;20359;-78
2022/05/28 06:10:56;;;;;;;1.30;0.90;;;15.50;57.80;;;;;;4973467;28;20105;-78
2022/05/28 06:13:22;;;;;;;1.10;1.00;;;15.60;57.80;;;;;;4958026;28;20085;-78
2022/05/28 06:15:47;;;;;;;1.45;0.95;;;15.60;57.90;;;;;;4974893;28;20438;-78
2022/05/28 06:18:14;;;;;;;1.00;0.80;;;15.60;57.80;;;;;;4957997;28;20027;-78
2022/05/28 06:20:40;;;;;;;1.27;0.80;;;15.60;57.80;;;;;;4972899;28;20031;-78
2022/05/28 06:23:06;;;;;;;1.95;1.02;;;15.60;57.80;;;;;;4957943;28;20054;-78
2022/05/28 06:25:32;;;;;;;1.10;0.93;;;15.60;57.80;;;;;;4973569;28;20029;-79
2022/05/28 06:27:58;;;;;;;2.30;1.33;;;15.60;57.80;;;;;;4973581;28;20023;-78
2022/05/28 06:30:24;;;;;;;1.40;0.90;;;15.60;57.80;;;;;;4974467;28;20018;-78
2022/05/28 06:32:50;;;;;;;2.20;1.00;;;15.60;57.70;;;;;;4974656;28;20026;-78
2022/05/28 06:35:16;;;;;;;2.05;0.90;;;15.60;57.70;;;;;;4957905;28;20118;-79
2022/05/28 06:37:41;;;;;;;0.80;0.80;;;15.60;57.70;;;;;;4973582;28;20034;-78
2022/05/28 06:40:08;;;;;;;2.28;1.10;;;15.60;57.70;;;;;;4974544;28;20034;-78
2022/05/28 06:42:34;;;;;;;2.13;1.10;;;15.70;57.80;;;;;;4973122;28;20372;-78
2022/05/28 06:45:00;;;;;;;1.60;1.00;;;15.70;57.70;;;;;;4956899;28;20031;-77
2022/05/28 06:47:27;;;;;;;1.33;0.95;;;15.70;57.70;;;;;;4974822;28;20035;-78
2022/05/28 06:52:37;;;;;;;1.63;1.00;;;15.70;57.70;;;;;;4973766;28;20042;-78
2022/05/28 06:55:04;;;;;;;1.38;0.85;;;15.70;57.60;;;;;;4973853;28;20027;-78
2022/05/28 06:57:29;;;;;;;1.23;0.95;;;15.80;57.70;;;;;;4973599;28;20031;-78
2022/05/28 06:59:57;;;;;;;1.88;1.10;;;15.80;57.70;;;;;;4974432;28;20031;-78
2022/05/28 07:02:23;;;;;;;1.10;0.90;;;15.80;57.70;;;;;;4974417;28;20464;-77
2022/05/28 07:04:48;;;;;;;1.23;1.00;;;15.80;57.60;;;;;;4972877;28;20050;-78
2022/05/28 07:07:15;;;;;;;0.90;0.90;;;15.80;57.60;;;;;;4954091;28;20106;-78
2022/05/28 07:09:40;;;;;;;1.35;0.95;;;15.90;57.50;;;;;;4968180;28;20542;-78
2022/05/28 07:12:07;;;;;;;2.20;1.10;;;15.90;57.40;;;;;;4970661;28;20062;-79
2022/05/28 07:14:32;;;;;;;1.40;0.98;;;15.90;57.40;;;;;;4970969;28;20472;-78
2022/05/28 07:16:58;;;;;;;2.67;1.20;;;15.90;57.40;;;;;;4937948;28;20031;-77
2022/05/28 07:19:24;;;;;;;2.22;1.17;;;15.90;57.40;;;;;;4952220;28;20048;-78
2022/05/28 07:21:49;;;;;;;1.10;1.00;;;15.90;57.30;;;;;;4952461;28;20046;-79
2022/05/28 07:24:15;;;;;;;1.33;1.00;;;15.90;57.20;;;;;;4975937;28;20097;-78
2022/05/28 07:26:41;;;;;;;1.00;0.90;;;16.00;57.20;;;;;;4963782;28;20042;-79
2022/05/28 07:29:08;;;;;;;1.02;0.93;;;16.00;57.20;;;;;;4955645;28;20046;-78
2022/05/28 07:31:34;;;;;;;1.75;1.02;;;16.00;57.10;;;;;;4972506;28;20027;-78
2022/05/28 07:34:00;;;;;;;2.05;0.90;;;16.00;57.00;;;;;;4971613;28;20105;-78
2022/05/28 07:36:26;;;;;;;2.05;1.10;;;16.00;57.00;;;;;;4973251;28;20030;-78
2022/05/28 07:38:53;;;;;;;1.35;0.82;;;16.10;57.00;;;;;;4955910;28;20031;-79
2022/05/28 07:41:22;;;;;;;1.30;1.00;;;16.10;56.90;;;;;;4969598;28;20499;-82
2022/05/28 07:43:48;;;;;;;1.38;0.90;;;16.20;56.80;;;;;;4955772;28;20019;-80
2022/05/28 07:46:21;;;;;;;0.77;0.73;;;16.20;56.70;;;;;;4961801;28;20034;-78
2022/05/28 07:48:48;;;;;;;2.55;1.08;;;16.20;56.60;;;;;;4950676;28;20034;-77
2022/05/28 07:51:14;;;;;;;1.15;1.00;;;16.30;56.50;;;;;;4955433;28;20087;-77
2022/05/28 07:53:40;;;;;;;1.50;1.00;;;16.40;56.60;;;;;;4971301;28;20019;-77
2022/05/28 07:56:07;;;;;;;3.58;1.10;;;16.40;56.50;;;;;;4968418;28;20081;-78
2022/05/28 07:58:33;;;;;;;1.63;1.10;;;16.40;56.40;;;;;;4965104;28;20026;-77
2022/05/28 08:00:59;;;;;;;1.23;1.10;;;16.50;56.40;;;;;;4966974;28;20443;-78
2022/05/28 08:03:26;;;;;;;2.63;1.02;;;16.50;56.40;;;;;;4972641;28;20010;-77
2022/05/28 08:05:53;;;;;;;1.92;1.20;;;16.60;56.40;;;;;;4974345;28;20482;-78
2022/05/28 08:08:21;;;;;;;1.33;0.90;;;16.60;56.30;;;;;;4963812;28;20084;-78
2022/05/28 08:10:48;;;;;;;1.65;0.90;;;16.70;56.30;;;;;;4971544;28;20018;-78
2022/05/28 08:13:16;;;;;;;2.05;1.17;;;16.70;56.30;;;;;;4972321;28;20042;-79
2022/05/28 08:15:44;;;;;;;1.58;0.80;;;16.80;56.30;;;;;;4972729;28;20011;-79
2022/05/28 08:18:11;;;;;;;2.05;1.05;;;16.80;56.20;;;;;;4939998;28;20479;-79
2022/05/28 08:23:21;;;;;;;2.58;1.13;;;16.90;56.20;;;;;;4973504;28;20030;-79
2022/05/28 08:25:48;;;;;;;2.17;1.00;;;16.90;56.10;;;;;;4956578;28;20034;-79
2022/05/28 08:28:15;;;;;;;1.67;1.00;;;16.90;56.10;;;;;;4972999;28;20038;-81
2022/05/28 08:30:42;;;;;;;1.65;0.95;;;17.00;56.10;;;;;;4973205;28;20039;-78
2022/05/28 08:33:10;;;;;;;2.35;1.10;;;17.10;56.10;;;;;;4956114;28;20027;-78
2022/05/28 08:35:37;;;;;;;1.90;1.08;;;17.20;56.10;;;;;;4973123;28;20030;-78
2022/05/28 08:38:05;;;;;;;2.15;1.00;;;17.20;56.00;;;;;;4959734;28;20467;-77
2022/05/28 08:40:34;;;;;;;1.70;0.90;;;17.30;56.00;;;;;;4958979;28;20022;-77
2022/05/28 08:43:01;;;;;;;3.08;1.13;;;17.30;55.90;;;;;;4964292;28;20018;-78
2022/05/28 08:45:27;;;;;;;2.10;1.20;;;17.40;55.90;;;;;;4972080;28;20030;-79
2022/05/28 08:47:55;;;;;;;2.55;1.15;;;17.40;55.80;;;;;;4971320;28;20379;-78
2022/05/28 08:50:21;;;;;;;2.65;1.27;;;17.40;55.30;;;;;;4939367;28;20038;-78
2022/05/28 08:53:00;;;;;;;4.03;1.23;;;17.50;54.90;;;;;;4972508;28;20496;-79
2022/05/28 08:55:28;;;;;;;2.03;1.00;;;17.50;54.50;;;;;;4955197;28;20078;-81
2022/05/28 08:58:06;;;;;;;2.40;1.10;;;17.60;54.20;;;;;;4972712;28;20041;-83
2022/05/28 09:00:45;;;;;;;8.77;1.48;;;17.60;53.90;;;;;;4955915;28;20023;-81
2022/05/28 09:03:12;;;;;;;4.68;1.45;;;17.70;53.60;;;;;;4973208;28;20037;-79
2022/05/28 09:05:51;;;;;;;2.67;1.25;;;17.70;53.40;;;;;;4954619;28;20037;-80
2022/05/28 09:08:29;;;;;;;3.22;1.17;;;17.80;53.30;;;;;;4966332;28;20483;-82
2022/05/28 09:11:01;;;;;;;1.45;0.85;;;17.80;53.10;;;;;;4971799;28;20041;-79
2022/05/28 09:13:39;;;;;;;3.42;1.20;;;17.90;52.90;;;;;;4972176;28;20508;-78
2022/05/28 09:16:08;;;;;;;2.03;1.10;;;17.90;52.80;;;;;;4978529;28;20383;-78
2022/05/28 09:18:36;;;;;;;3.65;1.05;;;18.00;52.70;;;;;;4970990;28;20023;-78
2022/05/28 09:21:04;;;;;;;2.28;1.05;;;18.10;52.60;;;;;;4968319;28;20035;-78
2022/05/28 09:24:04;;;;;;;3.85;1.20;;;18.10;52.50;;;;;;4953627;28;20057;-78
2022/05/28 09:26:52;;;;;;;2.08;1.10;;;18.20;52.70;;;;;;4961082;28;20042;-78
2022/05/28 09:29:45;;;;;;;2.22;1.20;;;18.30;52.70;;;;;;4962819;28;20501;-79
2022/05/28 09:32:27;;;;;;;3.92;1.30;;;18.30;52.80;;;;;;4971731;28;20068;-79
2022/05/28 09:34:53;;;;;;;1.60;0.98;;;18.40;52.90;;;;;;4969535;28;20026;-79
2022/05/28 09:37:30;;;;;;;3.35;1.40;;;18.50;52.80;;;;;;4970518;28;20030;-79
2022/05/28 09:40:15;;;;;;;2.33;1.05;;;18.60;53.00;;;;;;4953822;28;20042;-79
2022/05/28 09:42:47;;;;;;;3.22;1.23;;;18.60;53.00;;;;;;4970668;28;20031;-80
2022/05/28 09:45:27;;;;;;;2.00;1.05;;;18.70;53.00;;;;;;4970745;28;20030;-78
2022/05/28 09:47:53;;;;;;;2.17;1.20;;;18.80;53.20;;;;;;4969814;28;20030;-79
2022/05/28 09:50:23;;;;;;;1.15;0.95;;;18.80;53.10;;;;;;4970834;28;20038;-80
2022/05/28 09:56:01;;;;;;;2.45;1.17;;;19.00;53.30;;;;;;4970362;28;20090;-78
2022/05/28 09:58:30;;;;;;;2.88;1.02;;;19.10;53.20;;;;;;4970906;28;20089;-78
2022/05/28 10:01:11;;;;;;;1.30;1.00;;;19.10;53.20;;;;;;4973021;28;20089;-78
2022/05/28 10:06:26;;;;;;;2.30;0.88;;;19.20;53.20;;;;;;4974738;28;20022;-77
2022/05/28 10:08:51;;;;;;;2.88;1.10;;;19.20;53.20;;;;;;4972184;28;20035;-78
2022/05/28 10:11:19;;;;;;;1.55;1.00;;;19.40;53.30;;;;;;4938028;29;20114;-77
2022/05/28 10:13:51;;;;;;;2.03;1.13;;;19.40;53.20;;;;;;4967019;28;20029;-78
2022/05/28 10:16:20;;;;;;;2.97;1.05;;;19.40;53.10;;;;;;4969897;28;20042;-77
2022/05/28 10:18:50;;;;;;;1.48;1.00;;;19.50;53.10;;;;;;4970758;28;20022;-78
2022/05/28 10:21:19;;;;;;;2.15;1.08;;;19.60;53.10;;;;;;4967295;28;20085;-78
2022/05/28 10:23:55;;;;;;;2.45;0.85;;;19.60;53.00;;;;;;4962002;28;20031;-79
2022/05/28 10:26:30;;;;;;;2.03;1.05;;;19.70;53.10;;;;;;4973558;28;20059;-77
2022/05/28 10:29:00;;;;;;;2.03;0.88;;;19.80;53.00;;;;;;4963114;28;20061;-78
2022/05/28 10:31:25;;;;;;;3.00;1.20;;;19.80;52.90;;;;;;4970401;28;20118;-78
2022/05/28 10:33:51;;;;;;;2.42;1.15;;;19.90;52.90;;;;;;4971450;28;20101;-77
2022/05/28 10:36:22;;;;;;;3.35;1.00;;;19.90;52.80;;;;;;4963516;28;20129;-78
2022/05/28 10:38:47;;;;;;;2.50;1.17;;;20.00;52.80;;;;;;4979152;28;20042;-78
2022/05/28 10:41:25;;;;;;;2.08;1.00;;;20.00;52.80;;;;;;4975319;28;20035;-78
2022/05/28 10:43:51;;;;;;;2.78;1.00;;;20.10;52.80;;;;;;4979734;28;20027;-78
2022/05/28 10:46:40;;;;;;;2.40;1.15;;;20.20;52.80;;;;;;4971280;28;20046;-78
2022/05/28 10:49:49;;;;;;;0.93;0.73;;;20.20;52.70;;;;;;4968591;28;20122;-78
2022/05/28 10:52:32;;;;;;;2.42;1.00;;;20.30;52.80;;;;;;4965394;28;20396;-78
2022/05/28 10:55:12;;;;;;;1.77;0.90;;;20.40;52.70;;;;;;4968123;28;20027;-78
2022/05/28 10:57:50;;;;;;;1.55;0.88;;;20.40;52.60;;;;;;4970250;28;20026;-78
2022/05/28 11:00:21;;;;;;;1.92;1.00;;;20.50;52.70;;;;;;4969447;28;20085;-79
2022/05/28 11:03:08;;;;;;;1.52;0.93;;;20.50;52.60;;;;;;4951784;28;20028;-78
2022/05/28 11:05:41;;;;;;;1.48;0.75;;;20.60;52.70;;;;;;4966659;28;20125;-78
2022/05/28 11:08:34;;;;;;;1.92;0.90;;;20.60;52.70;;;;;;4971044;28;20022;-77
2022/05/28 11:11:34;;;;;;;2.08;0.90;;;20.70;52.70;;;;;;4982665;28;20050;-79
2022/05/28 11:14:25;;;;;;;1.73;0.90;;;20.70;52.70;;;;;;4968297;28;20023;-79
2022/05/28 11:17:12;;;;;;;1.83;1.00;;;20.80;52.80;;;;;;4972361;28;20031;-79
2022/05/28 11:19:41;;;;;;;2.58;1.20;;;20.80;52.70;;;;;;4972714;28;20771;-79
2022/05/28 11:22:28;;;;;;;1.58;0.90;;;20.90;52.70;;;;;;4973321;28;20125;-78
2022/05/28 11:24:54;;;;;;;2.13;1.00;;;20.80;52.80;;;;;;4966438;28;20034;-78
2022/05/28 11:27:34;;;;;;;1.75;1.10;;;20.90;52.70;;;;;;4956989;28;20034;-79
2022/05/28 11:30:00;;;;;;;1.67;0.90;;;20.90;52.70;;;;;;4966486;28;20051;-79
2022/05/28 11:32:44;;;;;;;2.40;1.10;;;21.00;52.60;;;;;;4957020;28;20023;-79
2022/05/28 11:35:32;;;;;;;0.95;0.88;;;21.00;52.60;;;;;;4961957;28;20170;-79
2022/05/28 11:38:06;;;;;;;2.05;1.10;;;21.00;52.50;;;;;;4973103;28;20085;-79
2022/05/28 11:41:07;;;;;;;1.83;1.00;;;21.00;52.50;;;;;;4974009;28;20029;-79
2022/05/28 11:43:40;;;;;;;1.60;0.85;;;21.10;52.60;;;;;;4969929;28;20023;-79
2022/05/28 11:46:28;;;;;;;1.30;0.88;;;21.10;52.50;;;;;;4984144;28;20030;-79
2022/05/28 11:51:54;;;;;;;2.53;1.08;;;21.10;52.50;;;;;;4964905;28;20070;-80
2022/05/28 11:54:32;;;;;;;2.20;1.00;;;21.20;52.60;;;;;;4966844;28;20034;-79
2022/05/28 11:57:03;;;;;;;1.00;0.82;;;21.20;52.70;;;;;;4953963;28;20035;-78
2022/05/28 11:59:30;;;;;;;1.02;0.80;;;21.20;52.60;;;;;;4974034;28;20074;-80
2022/05/28 12:02:11;;;;;;;3.30;1.20;;;21.20;52.60;;;;;;4971334;28;20027;-77
2022/05/28 12:04:43;;;;;;;3.17;1.33;;;21.20;51.70;;;;;;4970710;28;20487;-77
2022/05/28 12:07:31;;;;;;;2.58;1.13;;;21.20;50.30;;;;;;4972478;28;20118;-76
2022/05/28 12:09:57;;;;;;;1.33;1.10;;;21.20;49.50;;;;;;4967295;28;20067;-76
2022/05/28 12:12:25;;;;;;;1.65;1.10;;;21.10;48.70;;;;;;4974956;28;20057;-77
2022/05/28 12:15:31;;;;;;;3.70;1.35;;;21.10;48.00;;;;;;4991487;28;20026;-75
2022/05/28 12:18:06;;;;;;;2.95;1.10;;;21.10;47.60;;;;;;4917546;29;20096;-76
2022/05/28 12:20:36;;;;;;;2.65;1.30;;;21.10;47.00;;;;;;4899202;29;20055;-76
2022/05/28 12:23:04;;;;;;;2.08;0.90;;;21.00;46.60;;;;;;4951935;28;20049;-74
2022/05/28 12:25:37;;;;;;;3.63;1.13;;;21.00;46.40;;;;;;4976640;28;20101;-76
2022/05/28 12:28:42;;;;;;;2.40;1.15;;;20.90;46.00;;;;;;4975504;28;20031;-76
2022/05/28 12:31:08;;;;;;;1.75;1.10;;;20.90;46.00;;;;;;4955224;29;20019;-76
2022/05/28 12:33:51;;;;;;;3.45;1.40;;;20.90;45.90;;;;;;4939933;29;20027;-76
2022/05/28 12:36:16;;;;;;;1.58;1.02;;;20.80;45.60;;;;;;4971837;28;20077;-77
2022/05/28 12:38:52;;;;;;;3.05;1.17;;;20.80;45.50;;;;;;4975109;28;20022;-76
2022/05/28 12:41:19;;;;;;;2.35;1.17;;;20.80;45.10;;;;;;4976330;28;20034;-76
2022/05/28 12:43:53;;;;;;;1.60;0.90;;;20.70;45.00;;;;;;4976216;28;20519;-76
2022/05/28 12:46:41;;;;;;;2.25;0.93;;;20.70;44.60;;;;;;4974129;28;20034;-76
2022/05/28 12:49:33;;;;;;;1.65;0.73;;;20.70;45.00;;;;;;4974546;28;20129;-76
2022/05/28 12:52:30;;;;;;;2.40;0.80;;;20.70;44.20;;;;;;4965250;28;20039;-76
2022/05/28 12:55:03;;;;;;;1.45;0.98;;;20.60;43.90;;;;;;4972040;28;20468;-77
2022/05/28 12:57:35;;;;;;;3.30;1.08;;;20.70;44.00;;;;;;4971530;28;20037;-78
2022/05/28 13:00:21;;;;;;;4.70;1.05;;;20.60;43.70;;;;;;4965389;28;20056;-75
2022/05/28 13:02:48;;;;;;;2.83;1.27;;;20.70;43.60;;;;;;4980477;28;20031;-80
2022/05/28 13:05:28;;;;;;;1.10;0.90;;;20.60;43.50;;;;;;4938243;28;20046;-78
2022/05/28 13:08:20;;;;;;;2.05;1.00;;;20.60;43.50;;;;;;4963953;28;20452;-78
2022/05/28 13:10:52;;;;;;;1.83;1.00;;;20.60;43.60;;;;;;4965372;28;20030;-79
2022/05/28 13:13:37;;;;;;;2.65;1.23;;;20.60;43.70;;;;;;4987651;28;20073;-79
2022/05/28 13:16:15;;;;;;;2.28;1.08;;;20.60;43.90;;;;;;4951832;28;20306;-77
2022/05/28 13:19:07;;;;;;;1.77;0.80;;;20.60;44.00;;;;;;4967118;28;20055;-77
2022/05/28 13:21:36;;;;;;;2.35;0.95;;;20.60;44.20;;;;;;4933823;29;20040;-79